EDHI/XFW METAR and TAF weather

Enter ICAO airport designator
Station Type Date Time Source
EDHI METAR 2021/04/13 23:50 UTC NOAA

EDHI 132350Z AUTO 25005KT 9999 // FEW036/// 01/M00 Q1029


Station Type Date Time Source
EDHI Decoded METAR 2021/04/13 23:50 UTC NOAA

Hamburg-Finkenwerder, Germany (EDHI) 53-32N 009-50E 13M
Apr 13, 2021 - 07:50 PM EDT / 2021.04.13 2350 UTC
Wind: from the WSW (250 degrees) at 6 MPH (5 KT):0
Visibility: greater than 7 mile(s):0
Sky conditions: mostly clear
Temperature: 33 F (1 C)
Windchill: 26 F (-3 C):1
Dew Point: 32 F (0 C)
Relative Humidity: 93%
Pressure (altimeter): 30.39 in. Hg (1029 hPa)
ob: EDHI 132350Z AUTO 25005KT 9999 // FEW036/// 01/M00 Q1029
cycle: 0

Station Type Date Time Source
EDHI TAF 2010/02/22 14:20 UTC NOAA

METAR EDHI 221420Z 17005KT 9999 BKN030 05/02 Q0989

Example: see airport list